createdAt,value
2019-06-10T00:00:41.808Z,2.80
2019-06-10T00:03:11.468Z,2.62
2019-06-10T00:05:41.818Z,3.60
2019-06-10T00:08:11.978Z,2.80
2019-06-10T00:10:42.054Z,3.23
2019-06-10T00:13:11.803Z,2.80
2019-06-10T00:15:41.028Z,3.00
2019-06-10T00:18:32.848Z,2.97
2019-06-10T00:20:40.923Z,3.07
2019-06-10T00:23:12.118Z,3.10
2019-06-10T00:25:41.467Z,3.20
2019-06-10T00:28:11.977Z,3.87
2019-06-10T00:30:41.364Z,3.67
2019-06-10T00:33:12.569Z,3.10
2019-06-10T00:35:41.241Z,2.80
2019-06-10T00:38:13.900Z,3.10
2019-06-10T00:40:41.692Z,3.13
2019-06-10T00:43:13.125Z,3.25
2019-06-10T00:45:41.176Z,2.63
2019-06-10T00:48:20.203Z,3.30
2019-06-10T00:50:41.443Z,3.33
2019-06-10T00:53:14.008Z,3.55
2019-06-10T00:55:41.577Z,3.17
2019-06-10T00:58:13.415Z,3.03
2019-06-10T01:00:41.335Z,3.10
2019-06-10T01:03:13.438Z,3.20
2019-06-10T01:05:42.284Z,3.40
2019-06-10T01:08:15.096Z,2.90
2019-06-10T01:10:43.925Z,3.07
2019-06-10T01:13:13.152Z,3.80
2019-06-10T01:15:41.887Z,5.23
2019-06-10T01:18:28.724Z,5.83
2019-06-10T01:20:41.279Z,6.43
2019-06-10T01:23:13.910Z,7.87
2019-06-10T01:25:42.294Z,9.10
2019-06-10T01:28:13.297Z,9.73
2019-06-10T01:30:41.355Z,9.40
2019-06-10T01:33:11.364Z,8.33
2019-06-10T01:35:41.425Z,7.40
2019-06-10T01:38:12.865Z,6.87
2019-06-10T01:40:42.198Z,6.40
2019-06-10T01:43:13.382Z,4.70
2019-06-10T01:45:41.885Z,4.30
2019-06-10T01:48:12.058Z,3.70
2019-06-10T01:50:40.854Z,4.20
2019-06-10T01:53:11.858Z,3.73
2019-06-10T01:55:41.470Z,3.37
2019-06-10T01:58:10.615Z,3.53
2019-06-10T02:00:53.730Z,2.80
2019-06-10T02:03:23.990Z,3.00
2019-06-10T02:05:52.538Z,3.53
2019-06-10T02:08:22.155Z,2.90
2019-06-10T02:10:51.043Z,2.53
2019-06-10T02:13:32.666Z,3.57
2019-06-10T02:16:02.350Z,3.30
2019-06-10T02:18:31.880Z,2.73
2019-06-10T02:21:01.381Z,3.50
2019-06-10T02:23:31.489Z,2.90
2019-06-10T02:26:01.545Z,3.03
2019-06-10T02:28:31.681Z,3.27
2019-06-10T02:31:03.269Z,3.03
2019-06-10T02:33:36.022Z,2.93
2019-06-10T02:36:04.112Z,2.53
2019-06-10T02:38:35.490Z,3.23
2019-06-10T02:41:04.229Z,2.93
2019-06-10T02:43:36.266Z,3.17
2019-06-10T02:46:04.431Z,3.43
2019-06-10T02:48:35.102Z,2.97
2019-06-10T02:51:05.386Z,3.17
2019-06-10T02:53:36.268Z,2.70
2019-06-10T02:56:06.977Z,2.80
2019-06-10T02:58:39.164Z,3.40
2019-06-10T03:01:06.451Z,3.17
2019-06-10T03:03:43.742Z,3.20
2019-06-10T03:06:08.884Z,3.23
2019-06-10T03:08:37.205Z,2.80
2019-06-10T03:11:06.950Z,3.23
2019-06-10T03:13:35.369Z,2.90
2019-06-10T03:16:19.932Z,3.50
2019-06-10T03:18:47.690Z,3.80
2019-06-10T03:21:16.101Z,3.62
2019-06-10T03:23:44.609Z,2.97
2019-06-10T03:26:13.025Z,2.92
2019-06-10T03:28:42.865Z,3.40
2019-06-10T03:31:15.019Z,3.23
2019-06-10T03:33:46.971Z,3.33
2019-06-10T03:36:12.438Z,3.30
2019-06-10T03:38:43.224Z,3.00
2019-06-10T03:41:12.543Z,3.02
2019-06-10T03:43:42.879Z,2.90
2019-06-10T03:46:13.650Z,2.97
2019-06-10T03:48:43.280Z,3.43
2019-06-10T03:51:12.590Z,3.33
2019-06-10T03:53:42.565Z,3.23
2019-06-10T03:56:12.838Z,3.33
2019-06-10T03:58:43.024Z,3.77
2019-06-10T04:01:12.470Z,3.67
2019-06-10T04:03:42.810Z,3.53
2019-06-10T04:06:13.013Z,3.10
2019-06-10T04:08:43.337Z,3.37
2019-06-10T04:11:12.291Z,3.57
2019-06-10T04:13:42.985Z,3.73
2019-06-10T04:16:13.099Z,3.33
2019-06-10T04:18:42.974Z,3.20
2019-06-10T04:21:12.967Z,3.17
2019-06-10T04:23:42.407Z,3.43
2019-06-10T04:26:12.846Z,3.87
2019-06-10T04:28:43.003Z,3.50
2019-06-10T04:31:13.197Z,3.63
2019-06-10T04:33:42.224Z,3.23
2019-06-10T04:36:13.211Z,3.52
2019-06-10T04:38:43.290Z,3.93
2019-06-10T04:41:12.606Z,3.92
2019-06-10T04:43:43.153Z,3.20
2019-06-10T04:46:12.735Z,3.10
2019-06-10T04:48:42.705Z,3.33
2019-06-10T04:51:12.955Z,3.60
2019-06-10T04:53:43.514Z,3.80
2019-06-10T04:56:12.367Z,3.20
2019-06-10T04:58:43.371Z,3.27
2019-06-10T05:01:12.168Z,3.30
2019-06-10T05:03:43.218Z,3.40
2019-06-10T05:06:12.378Z,3.20
2019-06-10T05:08:42.662Z,3.40
2019-06-10T05:11:12.841Z,3.80
2019-06-10T05:13:42.943Z,3.63
2019-06-10T05:16:12.638Z,2.90
2019-06-10T05:18:42.463Z,3.80
2019-06-10T05:21:13.097Z,3.30
2019-06-10T05:23:43.043Z,4.10
2019-06-10T05:26:13.400Z,3.90
2019-06-10T05:28:43.167Z,3.27
2019-06-10T05:31:12.867Z,3.52
2019-06-10T05:33:42.642Z,4.00
2019-06-10T05:36:13.126Z,3.55
2019-06-10T05:38:43.579Z,3.57
2019-06-10T05:41:13.408Z,3.87
2019-06-10T05:43:43.525Z,3.57
2019-06-10T05:46:13.428Z,3.90
2019-06-10T05:48:43.808Z,3.07
2019-06-10T05:51:12.470Z,3.95
2019-06-10T05:53:42.608Z,3.87
2019-06-10T05:56:12.886Z,4.20
2019-06-10T05:58:43.631Z,3.90
2019-06-10T06:01:13.274Z,3.55
2019-06-10T06:03:43.868Z,3.40
2019-06-10T06:06:13.549Z,3.37
2019-06-10T06:08:42.845Z,3.77
2019-06-10T06:11:12.660Z,3.83
2019-06-10T06:13:43.241Z,3.37
2019-06-10T06:16:12.648Z,3.40
2019-06-10T06:18:42.187Z,3.80
2019-06-10T06:21:22.417Z,3.70
2019-06-10T06:23:43.591Z,3.50
2019-06-10T06:26:16.556Z,3.37
2019-06-10T06:28:43.383Z,3.83
2019-06-10T06:31:12.656Z,3.57
2019-06-10T06:33:43.289Z,3.73
2019-06-10T06:36:12.583Z,3.98
2019-06-10T06:38:43.636Z,3.77
2019-06-10T06:41:13.643Z,3.72
2019-06-10T06:43:45.234Z,3.53
2019-06-10T06:46:12.835Z,3.97
2019-06-10T06:48:43.920Z,3.27
2019-06-10T06:51:12.972Z,3.57
2019-06-10T06:53:48.375Z,3.30
2019-06-10T06:56:12.837Z,3.50
2019-06-10T06:58:43.368Z,3.97
2019-06-10T07:01:14.394Z,3.33
2019-06-10T07:03:45.113Z,2.60
2019-06-10T07:06:13.747Z,2.70
2019-06-10T07:08:57.758Z,2.53
2019-06-10T07:11:33.943Z,2.60
2019-06-10T07:14:04.265Z,2.60
2019-06-10T07:16:34.506Z,3.07
2019-06-10T07:19:03.048Z,3.13
2019-06-10T07:21:34.243Z,3.07
2019-06-10T07:24:03.203Z,2.90
2019-06-10T07:26:34.056Z,2.97
2019-06-10T07:29:02.931Z,2.60
2019-06-10T07:31:33.812Z,2.83
2019-06-10T07:34:02.600Z,2.90
2019-06-10T07:36:32.956Z,3.07
2019-06-10T07:39:03.523Z,2.97
2019-06-10T07:41:32.825Z,3.13
2019-06-10T07:44:03.088Z,2.80
2019-06-10T07:46:33.502Z,2.60
2019-06-10T07:49:03.378Z,2.90
2019-06-10T07:51:32.964Z,2.87
2019-06-10T07:54:03.215Z,2.40
2019-06-10T07:56:38.238Z,2.70
2019-06-10T07:59:03.914Z,2.87
2019-06-10T08:01:33.333Z,2.70
2019-06-10T08:04:03.094Z,2.53
2019-06-10T08:06:34.414Z,2.90
2019-06-10T08:09:02.343Z,2.43
2019-06-10T08:11:33.094Z,2.40
2019-06-10T08:14:04.608Z,2.57
2019-06-10T08:16:32.696Z,2.50
2019-06-10T08:19:29.413Z,3.00
2019-06-10T08:21:32.308Z,3.03
2019-06-10T08:24:03.316Z,2.47
2019-06-10T08:26:32.449Z,2.90
2019-06-10T08:29:04.376Z,2.87
2019-06-10T08:31:33.298Z,3.10
2019-06-10T08:34:03.040Z,2.80
2019-06-10T08:36:33.350Z,3.13
2019-06-10T08:39:03.297Z,2.40
2019-06-10T08:41:32.351Z,3.20
2019-06-10T08:44:02.269Z,2.73
2019-06-10T08:46:32.907Z,2.97
2019-06-10T08:49:03.134Z,2.83
2019-06-10T08:51:32.513Z,3.17
2019-06-10T08:54:02.404Z,3.20
2019-06-10T08:56:32.839Z,3.23
2019-06-10T08:59:03.243Z,3.40
2019-06-10T09:01:33.426Z,3.00
2019-06-10T09:04:03.147Z,3.40
2019-06-10T09:06:32.926Z,3.07
2019-06-10T09:09:03.154Z,3.13
2019-06-10T09:11:32.853Z,3.03
2019-06-10T09:14:02.542Z,3.33
2019-06-10T09:16:32.450Z,3.20
2019-06-10T09:19:02.267Z,3.07
2019-06-10T09:21:33.068Z,3.67
2019-06-10T09:24:03.840Z,3.10
2019-06-10T09:26:33.677Z,3.53
2019-06-10T09:29:02.863Z,3.20
2019-06-10T09:31:33.140Z,3.50
2019-06-10T09:34:03.901Z,3.57
2019-06-10T09:36:32.519Z,3.37
2019-06-10T09:39:03.925Z,3.30
2019-06-10T09:41:41.053Z,4.00
2019-06-10T09:44:03.194Z,2.80
2019-06-10T09:46:33.090Z,3.10
2019-06-10T09:49:02.296Z,3.27
2019-06-10T09:51:32.388Z,3.47
2019-06-10T09:54:06.363Z,3.43
2019-06-10T09:56:33.131Z,3.47
2019-06-10T09:59:03.726Z,3.07
2019-06-10T10:01:32.754Z,3.37
2019-06-10T10:04:01.331Z,3.30
2019-06-10T10:06:32.542Z,3.20
2019-06-10T10:09:00.158Z,3.77
2019-06-10T10:11:28.782Z,3.87
2019-06-10T10:13:57.386Z,3.40
2019-06-10T10:16:25.841Z,3.90
2019-06-10T10:19:00.156Z,3.40
2019-06-10T10:21:24.434Z,3.07
2019-06-10T10:24:06.265Z,3.07
2019-06-10T10:26:23.000Z,3.70
2019-06-10T10:28:53.193Z,2.87
2019-06-10T10:31:23.337Z,3.07
2019-06-10T10:33:52.671Z,3.60
2019-06-10T10:36:22.587Z,3.60
2019-06-10T10:38:51.230Z,3.57
2019-06-10T10:41:24.040Z,3.73
2019-06-10T10:43:56.544Z,3.03
2019-06-10T10:46:23.100Z,3.30
2019-06-10T10:48:55.162Z,2.77
2019-06-10T10:51:23.124Z,3.10
2019-06-10T10:54:16.961Z,3.13
2019-06-10T10:56:22.352Z,2.87
2019-06-10T10:58:55.630Z,2.90
2019-06-10T11:01:23.476Z,3.30
2019-06-10T11:03:52.509Z,2.97
2019-06-10T11:06:23.179Z,3.03
2019-06-10T11:08:55.204Z,2.83
2019-06-10T11:11:23.017Z,2.93
2019-06-10T11:13:56.617Z,4.20
2019-06-10T11:16:22.777Z,3.35
2019-06-10T11:18:53.798Z,3.60
2019-06-10T11:21:22.840Z,2.87
2019-06-10T11:23:57.407Z,3.20
2019-06-10T11:26:26.689Z,4.23
2019-06-10T11:28:55.639Z,3.00
2019-06-10T11:31:23.407Z,3.57
2019-06-10T11:33:57.039Z,3.83
2019-06-10T11:36:22.888Z,2.83
2019-06-10T11:38:55.151Z,3.50
2019-06-10T11:41:23.623Z,2.90
2019-06-10T11:43:55.025Z,2.90
2019-06-10T11:46:21.856Z,3.60
2019-06-10T11:48:53.662Z,3.07
2019-06-10T11:51:20.497Z,3.27
2019-06-10T11:53:49.936Z,4.20
2019-06-10T11:56:19.222Z,3.67
2019-06-10T11:58:47.896Z,3.40
2019-06-10T12:01:16.432Z,3.47
2019-06-10T12:03:44.840Z,4.13
2019-06-10T12:06:13.791Z,3.37
2019-06-10T12:08:43.780Z,3.90
2019-06-10T12:11:12.910Z,3.63
2019-06-10T12:13:42.845Z,3.37
2019-06-10T12:17:11.325Z,3.90
2019-06-10T12:18:42.631Z,4.17
2019-06-10T12:21:13.140Z,3.47
2019-06-10T12:23:43.532Z,3.20
2019-06-10T12:26:12.300Z,4.17
2019-06-10T12:28:43.130Z,4.30
2019-06-10T12:31:13.577Z,4.10
2019-06-10T12:33:42.117Z,4.37
2019-06-10T12:36:12.909Z,3.72
2019-06-10T12:38:43.410Z,4.90
2019-06-10T12:41:13.805Z,3.35
2019-06-10T12:43:43.390Z,4.27
2019-06-10T12:46:12.789Z,4.87
2019-06-10T12:48:42.696Z,4.60
2019-06-10T12:51:13.486Z,4.63
2019-06-10T12:53:43.312Z,4.63
2019-06-10T12:56:14.730Z,4.87
2019-06-10T12:58:43.242Z,5.20
2019-06-10T13:01:13.605Z,4.40
2019-06-10T13:03:43.737Z,5.13
2019-06-10T13:06:13.984Z,3.80
2019-06-10T13:08:43.002Z,4.20
2019-06-10T13:11:13.392Z,3.73
2019-06-10T13:13:43.508Z,4.07
2019-06-10T13:16:14.040Z,3.30
2019-06-10T13:18:42.065Z,3.63
2019-06-10T13:21:16.538Z,4.25
2019-06-10T13:23:42.900Z,3.87
2019-06-10T13:26:15.276Z,3.65
2019-06-10T13:28:43.088Z,3.97
2019-06-10T13:31:11.354Z,4.10
2019-06-10T13:33:42.636Z,3.53
2019-06-10T13:36:10.385Z,3.33
2019-06-10T13:38:38.805Z,2.90
2019-06-10T13:41:08.751Z,3.33
2019-06-10T13:43:37.182Z,3.07
2019-06-10T13:46:08.868Z,2.83
2019-06-10T13:48:35.933Z,2.20
2019-06-10T13:51:08.589Z,2.70
2019-06-10T13:53:34.621Z,2.87
2019-06-10T13:56:28.240Z,2.80
2019-06-10T13:58:33.187Z,2.43
2019-06-10T14:01:04.603Z,3.57
2019-06-10T14:03:32.681Z,2.77
2019-06-10T14:06:10.808Z,3.67
2019-06-10T14:08:32.446Z,3.73
2019-06-10T14:11:06.855Z,3.13
2019-06-10T14:13:32.635Z,4.57
2019-06-10T14:16:01.448Z,4.10
2019-06-10T14:18:32.410Z,3.70
2019-06-10T14:21:03.049Z,4.00
2019-06-10T14:23:32.939Z,3.30
2019-06-10T14:26:02.501Z,4.37
2019-06-10T14:28:40.075Z,4.43
2019-06-10T14:31:05.145Z,4.33
2019-06-10T14:33:32.945Z,4.17
2019-06-10T14:36:05.056Z,4.20
2019-06-10T14:38:32.746Z,4.63
2019-06-10T14:41:04.359Z,4.23
2019-06-10T14:43:33.168Z,4.50
2019-06-10T14:46:01.898Z,4.93
2019-06-10T14:48:30.361Z,4.77
2019-06-10T14:50:59.041Z,4.83
2019-06-10T14:53:29.149Z,4.40
2019-06-10T14:55:59.122Z,5.00
2019-06-10T14:58:27.536Z,5.20
2019-06-10T15:00:55.993Z,4.03
2019-06-10T15:03:24.401Z,5.57
2019-06-10T15:05:53.062Z,5.30
2019-06-10T15:08:23.037Z,4.93
2019-06-10T15:10:52.732Z,4.80
2019-06-10T15:13:23.595Z,5.40
2019-06-10T15:15:53.190Z,4.40
2019-06-10T15:18:23.696Z,5.00
2019-06-10T15:20:53.779Z,4.57
2019-06-10T15:23:23.512Z,11.60
2019-06-10T15:25:56.957Z,22.97
2019-06-10T15:28:24.307Z,14.73
2019-06-10T15:30:52.945Z,11.47
2019-06-10T15:33:23.616Z,8.57
2019-06-10T15:35:53.307Z,9.40
2019-06-10T15:38:23.232Z,6.90
2019-06-10T15:40:53.187Z,6.70
2019-06-10T15:43:23.415Z,6.47
2019-06-10T15:45:52.827Z,6.20
2019-06-10T15:48:25.084Z,5.30
2019-06-10T15:50:52.365Z,4.83
2019-06-10T15:53:25.295Z,5.17
2019-06-10T15:58:25.771Z,5.47
2019-06-10T16:00:53.604Z,6.20
2019-06-10T16:03:25.526Z,6.30
2019-06-10T16:05:53.054Z,6.77
2019-06-10T16:08:22.597Z,5.47
2019-06-10T16:10:52.609Z,5.30
2019-06-10T16:13:25.212Z,6.07
2019-06-10T16:15:53.237Z,5.77
2019-06-10T16:18:25.871Z,5.78
2019-06-10T16:20:52.791Z,5.20
2019-06-10T16:23:24.681Z,5.83
2019-06-10T16:25:53.341Z,5.97
2019-06-10T16:28:23.368Z,5.93
2019-06-10T16:30:53.700Z,5.50
2019-06-10T16:33:26.065Z,5.97
2019-06-10T16:35:52.830Z,5.13
2019-06-10T16:38:23.732Z,5.67
2019-06-10T16:40:53.590Z,6.83
2019-06-10T16:43:24.107Z,5.30
2019-06-10T16:45:52.600Z,5.87
2019-06-10T16:48:21.719Z,6.22
2019-06-10T16:50:54.003Z,5.10
2019-06-10T16:53:25.847Z,4.97
2019-06-10T16:55:52.725Z,5.50
2019-06-10T16:58:23.613Z,6.00
2019-06-10T17:00:51.023Z,6.50
2019-06-10T17:03:21.107Z,6.70
2019-06-10T17:05:49.622Z,6.70
2019-06-10T17:08:18.008Z,5.90
2019-06-10T17:10:46.421Z,7.43
2019-06-10T17:13:16.502Z,7.20
2019-06-10T17:15:44.914Z,6.80
2019-06-10T17:18:13.345Z,7.50
2019-06-10T17:20:42.960Z,6.97
2019-06-10T17:23:25.663Z,7.40
2019-06-10T17:25:53.524Z,7.67
2019-06-10T17:28:27.171Z,7.53
2019-06-10T17:30:54.129Z,7.87
2019-06-10T17:33:25.415Z,7.77
2019-06-10T17:35:52.790Z,7.57
2019-06-10T17:38:22.486Z,7.60
2019-06-10T17:40:52.131Z,8.03
2019-06-10T17:43:20.919Z,7.63
2019-06-10T17:45:49.495Z,8.40
2019-06-10T17:48:17.931Z,7.67
2019-06-10T17:50:46.353Z,6.23
2019-06-10T17:53:14.788Z,8.10
2019-06-10T17:55:43.343Z,8.57
2019-06-10T17:58:13.094Z,5.70
2019-06-10T18:00:42.229Z,8.07
2019-06-10T18:03:13.021Z,7.47
2019-06-10T18:05:42.700Z,7.77
2019-06-10T18:08:13.050Z,7.97
2019-06-10T18:10:43.396Z,8.40
2019-06-10T18:13:16.481Z,7.47
2019-06-10T18:15:41.814Z,7.10
2019-06-10T18:18:12.858Z,8.30
2019-06-10T18:20:43.254Z,8.17
2019-06-10T18:23:13.280Z,8.10
2019-06-10T18:25:43.083Z,7.47
2019-06-10T18:28:12.076Z,8.03
2019-06-10T18:30:43.249Z,9.80
2019-06-10T18:33:10.861Z,8.87
2019-06-10T18:35:39.392Z,10.23
2019-06-10T18:38:08.107Z,10.17
2019-06-10T18:40:37.194Z,10.73
2019-06-10T18:43:06.560Z,12.33
2019-06-10T18:45:38.191Z,11.77
2019-06-10T18:48:06.088Z,11.50
2019-06-10T18:50:36.166Z,11.17
2019-06-10T18:53:04.717Z,10.73
2019-06-10T18:55:39.082Z,9.57
2019-06-10T18:58:06.317Z,10.57
2019-06-10T19:00:54.558Z,8.70
2019-06-10T19:03:12.668Z,9.50
2019-06-10T19:05:37.847Z,9.00
2019-06-10T19:08:06.639Z,10.23
2019-06-10T19:10:37.103Z,10.50
2019-06-10T19:13:05.956Z,9.63
2019-06-10T19:15:35.665Z,6.63
2019-06-10T19:18:04.739Z,6.20
2019-06-10T19:20:36.927Z,5.83
2019-06-10T19:23:03.310Z,4.40
2019-06-10T19:25:33.764Z,4.47
2019-06-10T19:28:03.419Z,4.00
2019-06-10T19:30:35.789Z,3.30
2019-06-10T19:33:02.670Z,3.13
2019-06-10T19:35:33.578Z,3.10
2019-06-10T19:38:03.756Z,3.33
2019-06-10T19:40:33.866Z,3.50
2019-06-10T19:43:03.216Z,3.20
2019-06-10T19:45:32.355Z,3.60
2019-06-10T19:48:03.117Z,3.67
2019-06-10T19:50:34.027Z,3.80
2019-06-10T19:53:02.657Z,3.40
2019-06-10T19:55:32.977Z,4.10
2019-06-10T19:58:03.823Z,4.27
2019-06-10T20:00:33.089Z,4.13
2019-06-10T20:03:02.888Z,4.57
2019-06-10T20:05:32.646Z,4.30
2019-06-10T20:08:03.081Z,4.13
2019-06-10T20:10:32.451Z,3.90
2019-06-10T20:13:01.149Z,3.83
2019-06-10T20:15:29.647Z,4.00
2019-06-10T20:17:58.066Z,3.93
2019-06-10T20:20:26.495Z,4.10
2019-06-10T20:22:57.377Z,3.83
2019-06-10T20:25:25.184Z,4.00
2019-06-10T20:27:53.601Z,3.90
2019-06-10T20:30:28.407Z,4.03
2019-06-10T20:32:55.939Z,4.60
2019-06-10T20:35:23.257Z,4.30
2019-06-10T20:37:53.998Z,4.40
2019-06-10T20:40:22.852Z,4.20
2019-06-10T20:42:51.335Z,4.03
2019-06-10T20:45:19.915Z,4.30
2019-06-10T20:47:48.630Z,3.37
2019-06-10T20:50:17.692Z,2.87
2019-06-10T20:52:47.501Z,4.40
2019-06-10T20:55:16.320Z,3.92
2019-06-10T20:57:54.923Z,4.03
2019-06-10T21:00:22.724Z,4.10
2019-06-10T21:02:49.072Z,4.37
2019-06-10T21:05:18.441Z,3.10
2019-06-10T21:07:48.575Z,3.90
2019-06-10T21:10:22.298Z,3.23
2019-06-10T21:12:51.033Z,3.47
2019-06-10T21:15:19.570Z,3.58
2019-06-10T21:17:49.134Z,4.27
2019-06-10T21:20:17.784Z,4.33
2019-06-10T21:22:47.431Z,3.10
2019-06-10T21:25:16.302Z,4.07
2019-06-10T21:27:46.135Z,3.07
2019-06-10T21:30:14.916Z,3.90
2019-06-10T21:32:45.298Z,4.17
2019-06-10T21:35:13.525Z,4.43
2019-06-10T21:37:43.910Z,4.50
2019-06-10T21:40:12.758Z,3.80
2019-06-10T21:42:41.706Z,5.00
2019-06-10T21:45:12.477Z,4.97
2019-06-10T21:47:44.070Z,3.97
2019-06-10T21:50:12.601Z,3.47
2019-06-10T21:52:44.372Z,3.47
2019-06-10T21:55:13.121Z,3.95
2019-06-10T21:57:42.987Z,4.17
2019-06-10T22:00:15.174Z,4.75
2019-06-10T22:02:45.223Z,4.50
2019-06-10T22:05:14.721Z,3.60
2019-06-10T22:07:43.860Z,6.57
2019-06-10T22:10:13.083Z,6.37
2019-06-10T22:12:42.145Z,5.80
2019-06-10T22:15:12.547Z,5.43
2019-06-10T22:17:42.556Z,6.47
2019-06-10T22:20:12.799Z,5.83
2019-06-10T22:22:42.877Z,6.93
2019-06-10T22:25:13.167Z,7.60
2019-06-10T22:27:42.210Z,7.90
2019-06-10T22:30:11.736Z,7.13
2019-06-10T22:32:42.792Z,6.83
2019-06-10T22:35:12.303Z,6.53
2019-06-10T22:37:40.881Z,6.07
2019-06-10T22:40:12.261Z,5.60
2019-06-10T22:42:40.080Z,5.62
2019-06-10T22:45:09.035Z,5.60
2019-06-10T22:47:37.465Z,6.13
2019-06-10T22:50:07.706Z,6.33
2019-06-10T22:52:36.696Z,6.30
2019-06-10T22:55:07.387Z,6.33
2019-06-10T22:57:36.981Z,4.67
2019-06-10T23:00:08.192Z,6.30
2019-06-10T23:02:37.915Z,5.80
2019-06-10T23:05:07.168Z,5.03
2019-06-10T23:07:35.650Z,6.23
2019-06-10T23:10:06.117Z,6.40
2019-06-10T23:12:34.533Z,6.47
2019-06-10T23:15:03.053Z,7.17
2019-06-10T23:17:31.534Z,6.17
2019-06-10T23:19:59.946Z,7.33
2019-06-10T23:22:28.517Z,8.70
2019-06-10T23:24:57.725Z,8.33
2019-06-10T23:27:26.291Z,8.80
2019-06-10T23:29:56.022Z,9.40
2019-06-10T23:32:24.929Z,9.83
2019-06-10T23:34:54.669Z,10.63
2019-06-10T23:37:23.486Z,11.20
2019-06-10T23:39:52.774Z,11.47
2019-06-10T23:42:22.775Z,11.88
2019-06-10T23:44:51.314Z,12.13
2019-06-10T23:47:22.086Z,12.87
2019-06-10T23:49:51.422Z,13.27
2019-06-10T23:52:22.045Z,12.90
2019-06-10T23:54:51.540Z,13.40
2019-06-10T23:57:22.229Z,13.83
2019-06-10T23:59:52.469Z,13.40
